createdAt,value
2019-05-07T00:00:33.517Z,26.50
2019-05-07T00:02:33.483Z,25.40
2019-05-07T00:04:33.475Z,26.80
2019-05-07T00:06:33.463Z,26.60
2019-05-07T00:08:33.423Z,26.80
2019-05-07T00:10:33.412Z,26.50
2019-05-07T00:12:33.375Z,26.40
2019-05-07T00:14:34.601Z,27.70
2019-05-07T00:16:33.345Z,27.20
2019-05-07T00:18:33.350Z,26.20
2019-05-07T00:20:33.313Z,25.50
2019-05-07T00:22:33.272Z,26.40
2019-05-07T00:24:33.354Z,26.70
2019-05-07T00:26:33.243Z,28.00
2019-05-07T00:28:33.203Z,27.40
2019-05-07T00:30:33.399Z,26.00
2019-05-07T00:32:33.213Z,27.00
2019-05-07T00:34:33.140Z,26.70
2019-05-07T00:36:33.121Z,25.50
2019-05-07T00:38:33.115Z,27.90
2019-05-07T00:40:33.075Z,25.70
2019-05-07T00:42:33.057Z,26.10
2019-05-07T00:44:33.044Z,26.20
2019-05-07T00:46:33.010Z,27.30
2019-05-07T00:48:33.116Z,25.60
2019-05-07T00:50:33.228Z,25.90
2019-05-07T00:52:33.545Z,25.30
2019-05-07T00:54:32.933Z,25.30
2019-05-07T00:56:33.339Z,26.80
2019-05-07T00:58:32.887Z,26.10
2019-05-07T01:00:33.343Z,25.90
2019-05-07T01:02:32.871Z,25.80
2019-05-07T01:04:33.219Z,25.00
2019-05-07T01:06:33.217Z,25.40
2019-05-07T01:08:32.771Z,26.30
2019-05-07T01:10:33.099Z,25.50
2019-05-07T01:12:33.000Z,26.20
2019-05-07T01:14:32.707Z,26.00
2019-05-07T01:16:33.125Z,25.90
2019-05-07T01:18:32.706Z,25.70
2019-05-07T01:20:33.037Z,24.70
2019-05-07T01:22:33.152Z,25.20
2019-05-07T01:24:32.616Z,25.70
2019-05-07T01:26:33.035Z,26.30
2019-05-07T01:28:32.971Z,25.90
2019-05-07T01:30:32.639Z,25.80
2019-05-07T01:32:33.104Z,24.90
2019-05-07T01:34:32.513Z,25.70
2019-05-07T01:36:32.484Z,26.00
2019-05-07T01:38:33.163Z,26.30
2019-05-07T01:40:32.485Z,25.70
2019-05-07T01:42:32.799Z,25.60
2019-05-07T01:44:32.750Z,25.30
2019-05-07T01:46:32.555Z,26.50
2019-05-07T01:48:32.512Z,24.60
2019-05-07T01:50:32.428Z,27.10
2019-05-07T01:52:33.148Z,26.50
2019-05-07T01:54:33.237Z,25.50
2019-05-07T01:56:33.135Z,25.60
2019-05-07T01:58:33.141Z,25.40
2019-05-07T02:00:32.701Z,26.40
2019-05-07T02:02:32.195Z,25.80
2019-05-07T02:04:32.680Z,25.10
2019-05-07T02:06:32.752Z,25.20
2019-05-07T02:08:32.860Z,24.80
2019-05-07T02:10:32.256Z,23.90
2019-05-07T02:12:32.091Z,24.60
2019-05-07T02:14:33.028Z,24.00
2019-05-07T02:16:32.681Z,24.80
2019-05-07T02:18:32.595Z,24.90
2019-05-07T02:20:32.337Z,25.00
2019-05-07T02:22:32.169Z,25.20
2019-05-07T02:24:33.885Z,24.60
2019-05-07T02:26:32.272Z,24.40
2019-05-07T02:28:32.916Z,24.70
2019-05-07T02:30:34.979Z,24.60
2019-05-07T02:32:33.589Z,25.50
2019-05-07T02:34:34.253Z,24.50
2019-05-07T02:36:34.019Z,24.60
2019-05-07T02:38:33.999Z,24.70
2019-05-07T02:40:33.897Z,24.90
2019-05-07T02:42:33.554Z,24.80
2019-05-07T02:44:32.511Z,24.20
2019-05-07T02:46:35.702Z,24.00
2019-05-07T02:48:33.273Z,23.90
2019-05-07T02:50:32.986Z,25.50
2019-05-07T02:52:32.419Z,23.90
2019-05-07T02:54:32.805Z,24.60
2019-05-07T02:56:33.285Z,24.20
2019-05-07T02:58:33.035Z,25.00
2019-05-07T03:00:33.362Z,24.10
2019-05-07T03:02:33.253Z,24.90
2019-05-07T03:04:33.293Z,23.70
2019-05-07T03:06:33.932Z,24.00
2019-05-07T03:08:33.117Z,23.90
2019-05-07T03:10:34.107Z,24.60
2019-05-07T03:12:33.585Z,25.20
2019-05-07T03:14:32.393Z,24.80
2019-05-07T03:16:39.939Z,24.70
2019-05-07T03:18:33.422Z,24.50
2019-05-07T03:20:33.432Z,23.80
2019-05-07T03:22:33.804Z,24.50
2019-05-07T03:24:34.138Z,24.00
2019-05-07T03:26:34.068Z,24.80
2019-05-07T03:28:33.590Z,24.70
2019-05-07T03:30:35.565Z,24.20
2019-05-07T03:32:36.722Z,23.90
2019-05-07T03:34:36.705Z,23.80
2019-05-07T03:36:35.399Z,23.80
2019-05-07T03:38:33.460Z,24.50
2019-05-07T03:40:32.891Z,23.80
2019-05-07T03:42:33.616Z,25.30
2019-05-07T03:44:33.824Z,25.10
2019-05-07T03:46:33.608Z,26.50
2019-05-07T03:48:33.335Z,25.40
2019-05-07T03:50:33.635Z,25.30
2019-05-07T03:52:33.510Z,26.20
2019-05-07T03:54:33.782Z,25.70
2019-05-07T03:56:33.052Z,26.20
2019-05-07T03:58:33.651Z,25.60
2019-05-07T04:00:33.299Z,25.50
2019-05-07T04:02:33.172Z,25.10
2019-05-07T04:04:33.213Z,25.60
2019-05-07T04:06:33.182Z,25.00
2019-05-07T04:08:33.416Z,25.40
2019-05-07T04:10:33.483Z,24.20
2019-05-07T04:12:30.812Z,23.10
2019-05-07T04:14:34.107Z,22.80
2019-05-07T04:16:33.254Z,22.70
2019-05-07T04:18:32.987Z,23.00
2019-05-07T04:20:33.360Z,23.20
2019-05-07T04:22:30.703Z,22.50
2019-05-07T04:24:33.176Z,23.30
2019-05-07T04:26:33.640Z,22.50
2019-05-07T04:28:33.365Z,23.70
2019-05-07T04:30:33.109Z,23.40
2019-05-07T04:32:33.252Z,23.90
2019-05-07T04:34:33.559Z,24.00
2019-05-07T04:36:33.809Z,25.00
2019-05-07T04:38:33.148Z,23.80
2019-05-07T04:40:33.628Z,23.20
2019-05-07T04:42:33.093Z,24.50
2019-05-07T04:44:33.037Z,23.10
2019-05-07T04:46:33.076Z,24.50
2019-05-07T04:48:30.422Z,24.80
2019-05-07T04:50:39.386Z,25.50
2019-05-07T04:52:33.623Z,25.70
2019-05-07T04:54:32.851Z,26.80
2019-05-07T04:56:33.156Z,25.30
2019-05-07T04:58:30.313Z,26.00
2019-05-07T05:00:33.345Z,26.10
2019-05-07T05:02:32.487Z,25.30
2019-05-07T05:04:34.333Z,26.00
2019-05-07T05:06:32.741Z,26.00
2019-05-07T05:08:32.590Z,25.00
2019-05-07T05:10:30.175Z,27.10
2019-05-07T05:12:32.582Z,26.40
2019-05-07T05:14:30.136Z,25.50
2019-05-07T05:16:30.120Z,26.10
2019-05-07T05:18:30.091Z,27.10
2019-05-07T05:20:30.063Z,27.60
2019-05-07T05:22:31.742Z,27.40
2019-05-07T05:24:30.037Z,26.90
2019-05-07T05:26:32.328Z,25.90
2019-05-07T05:28:32.181Z,25.80
2019-05-07T05:30:29.948Z,24.80
2019-05-07T05:32:29.939Z,24.80
2019-05-07T05:34:29.921Z,24.00
2019-05-07T05:36:29.909Z,23.20
2019-05-07T05:38:29.866Z,23.60
2019-05-07T05:40:31.851Z,24.40
2019-05-07T05:42:29.830Z,23.90
2019-05-07T05:44:31.862Z,24.20
2019-05-07T05:46:31.774Z,23.80
2019-05-07T05:48:29.766Z,25.10
2019-05-07T05:50:29.732Z,24.40
2019-05-07T05:52:29.733Z,24.50
2019-05-07T05:54:31.728Z,23.60
2019-05-07T05:56:29.669Z,24.50
2019-05-07T05:58:29.651Z,24.60
2019-05-07T06:00:29.671Z,23.20
2019-05-07T06:02:29.604Z,24.50
2019-05-07T06:04:29.829Z,23.80
2019-05-07T06:06:29.565Z,24.70
2019-05-07T06:08:29.540Z,25.00
2019-05-07T06:10:29.551Z,24.80
2019-05-07T06:12:29.493Z,25.00
2019-05-07T06:14:29.496Z,25.50
2019-05-07T06:16:29.464Z,23.60
2019-05-07T06:18:29.429Z,24.70
2019-05-07T06:20:29.426Z,23.40
2019-05-07T06:22:29.394Z,24.50
2019-05-07T06:24:31.638Z,23.90
2019-05-07T06:26:29.340Z,23.90
2019-05-07T06:28:29.343Z,21.80
2019-05-07T06:30:29.316Z,21.50
2019-05-07T06:32:29.283Z,19.40
2019-05-07T06:34:29.268Z,20.20
2019-05-07T06:36:29.260Z,19.60
2019-05-07T06:38:29.217Z,19.60
2019-05-07T06:40:29.645Z,20.00
2019-05-07T06:42:29.193Z,19.20
2019-05-07T06:44:29.150Z,17.40
2019-05-07T06:46:29.125Z,16.90
2019-05-07T06:48:40.912Z,17.20
2019-05-07T06:50:30.082Z,17.30
2019-05-07T06:52:29.068Z,17.20
2019-05-07T06:54:29.085Z,18.50
2019-05-07T06:56:29.021Z,18.20
2019-05-07T06:58:29.089Z,17.60
2019-05-07T07:00:28.977Z,17.60
2019-05-07T07:02:28.967Z,17.90
2019-05-07T07:04:28.961Z,17.20
2019-05-07T07:06:28.917Z,16.60
2019-05-07T07:08:28.921Z,17.90
2019-05-07T07:10:28.888Z,17.90
2019-05-07T07:12:28.849Z,14.10
2019-05-07T07:14:28.844Z,14.20
2019-05-07T07:16:28.815Z,16.60
2019-05-07T07:18:28.803Z,15.80
2019-05-07T07:20:28.767Z,17.00
2019-05-07T07:22:28.781Z,16.60
2019-05-07T07:24:28.717Z,16.50
2019-05-07T07:26:28.776Z,16.10
2019-05-07T07:28:28.694Z,16.40
2019-05-07T07:30:28.649Z,16.00
2019-05-07T07:32:28.642Z,16.30
2019-05-07T07:34:28.623Z,14.90
2019-05-07T07:36:28.590Z,15.80
2019-05-07T07:38:28.575Z,15.50
2019-05-07T07:40:28.547Z,16.10
2019-05-07T07:42:28.541Z,15.30
2019-05-07T07:44:28.519Z,15.60
2019-05-07T07:46:28.483Z,15.00
2019-05-07T07:48:28.485Z,15.90
2019-05-07T07:50:28.455Z,15.80
2019-05-07T07:52:28.411Z,15.70
2019-05-07T07:54:28.405Z,16.20
2019-05-07T07:56:28.385Z,16.10
2019-05-07T07:58:28.358Z,16.40
2019-05-07T08:00:30.071Z,16.60
2019-05-07T08:02:28.306Z,17.00
2019-05-07T08:04:28.332Z,17.10
2019-05-07T08:06:28.263Z,17.20
2019-05-07T08:08:28.236Z,16.90
2019-05-07T08:10:28.246Z,16.90
2019-05-07T08:12:28.208Z,16.80
2019-05-07T08:14:28.171Z,17.20
2019-05-07T08:16:28.183Z,17.70
2019-05-07T08:18:28.151Z,16.70
2019-05-07T08:20:28.114Z,16.70
2019-05-07T08:22:28.109Z,17.40
2019-05-07T08:24:28.069Z,17.50
2019-05-07T08:26:28.065Z,16.90
2019-05-07T08:28:28.032Z,17.50
2019-05-07T08:30:27.998Z,17.00
2019-05-07T08:32:28.010Z,16.80
2019-05-07T08:34:27.968Z,16.10
2019-05-07T08:36:27.952Z,16.90
2019-05-07T08:38:30.001Z,17.10
2019-05-07T08:40:27.893Z,17.40
2019-05-07T08:42:27.908Z,16.50
2019-05-07T08:44:27.848Z,15.60
2019-05-07T08:46:27.997Z,17.40
2019-05-07T08:48:27.806Z,17.20
2019-05-07T08:50:27.801Z,17.40
2019-05-07T08:52:27.775Z,17.50
2019-05-07T08:54:27.742Z,18.30
2019-05-07T08:56:27.719Z,17.30
2019-05-07T08:58:27.720Z,17.70
2019-05-07T09:00:27.688Z,17.00
2019-05-07T09:02:27.667Z,17.00
2019-05-07T09:04:27.636Z,17.00
2019-05-07T09:06:27.646Z,16.90
2019-05-07T09:08:27.595Z,17.20
2019-05-07T09:10:27.590Z,15.80
2019-05-07T09:12:27.569Z,15.90
2019-05-07T09:14:27.545Z,15.60
2019-05-07T09:16:27.517Z,15.70
2019-05-07T09:18:27.486Z,15.60
2019-05-07T09:20:27.476Z,15.10
2019-05-07T09:22:27.447Z,15.70
2019-05-07T09:24:27.430Z,15.80
2019-05-07T09:26:27.420Z,15.20
2019-05-07T09:28:27.390Z,15.40
2019-05-07T09:30:28.619Z,14.90
2019-05-07T09:32:27.335Z,15.30
2019-05-07T09:34:27.307Z,16.20
2019-05-07T09:36:27.303Z,15.70
2019-05-07T09:38:27.275Z,16.40
2019-05-07T09:40:27.251Z,15.90
2019-05-07T09:42:27.248Z,17.30
2019-05-07T09:44:27.204Z,18.10
2019-05-07T09:46:27.184Z,17.60
2019-05-07T09:48:27.178Z,19.50
2019-05-07T09:50:27.142Z,19.10
2019-05-07T09:52:27.126Z,19.60
2019-05-07T09:54:27.122Z,19.10
2019-05-07T09:56:27.075Z,21.20
2019-05-07T09:58:36.699Z,20.10
2019-05-07T10:00:28.026Z,20.50
2019-05-07T10:02:27.002Z,20.60
2019-05-07T10:04:27.037Z,21.70
2019-05-07T10:06:26.964Z,20.90
2019-05-07T10:08:26.962Z,20.20
2019-05-07T10:10:26.997Z,20.10
2019-05-07T10:12:26.900Z,20.20
2019-05-07T10:14:26.875Z,19.90
2019-05-07T10:16:26.864Z,19.90
2019-05-07T10:18:26.834Z,18.70
2019-05-07T10:20:26.832Z,20.20
2019-05-07T10:22:26.784Z,20.60
2019-05-07T10:24:26.773Z,18.90
2019-05-07T10:26:26.756Z,19.40
2019-05-07T10:28:26.735Z,20.30
2019-05-07T10:30:26.713Z,20.10
2019-05-07T10:32:26.691Z,20.70
2019-05-07T10:34:26.659Z,20.30
2019-05-07T10:36:26.649Z,20.90
2019-05-07T10:38:26.649Z,21.00
2019-05-07T10:40:26.601Z,21.50
2019-05-07T10:42:26.581Z,20.00
2019-05-07T10:44:26.552Z,20.10
2019-05-07T10:46:26.562Z,21.00
2019-05-07T10:48:26.580Z,19.90
2019-05-07T10:50:36.315Z,20.30
2019-05-07T10:52:27.459Z,19.20
2019-05-07T10:54:26.453Z,21.10
2019-05-07T10:56:26.425Z,19.60
2019-05-07T10:58:26.419Z,19.80
2019-05-07T11:00:26.377Z,18.30
2019-05-07T11:02:26.350Z,18.00
2019-05-07T11:04:39.253Z,19.30
2019-05-07T11:06:27.311Z,18.60
2019-05-07T11:08:26.311Z,20.60
2019-05-07T11:10:26.265Z,20.60
2019-05-07T11:12:26.254Z,20.70
2019-05-07T11:14:26.237Z,20.30
2019-05-07T11:16:26.199Z,20.40
2019-05-07T11:18:26.187Z,20.50
2019-05-07T11:20:26.188Z,20.70
2019-05-07T11:22:26.144Z,22.00
2019-05-07T11:24:26.140Z,20.80
2019-05-07T11:26:26.107Z,20.50
2019-05-07T11:28:26.083Z,21.30
2019-05-07T11:30:26.056Z,20.80
2019-05-07T11:32:26.042Z,21.00
2019-05-07T11:34:26.006Z,20.90
2019-05-07T11:36:26.007Z,19.90
2019-05-07T11:38:26.000Z,21.50
2019-05-07T11:40:25.967Z,20.00
2019-05-07T11:42:25.941Z,20.50
2019-05-07T11:44:25.899Z,19.80
2019-05-07T11:46:25.895Z,20.40
2019-05-07T11:48:25.875Z,19.50
2019-05-07T11:50:25.839Z,20.20
2019-05-07T11:52:25.855Z,20.80
2019-05-07T11:54:25.810Z,20.30
2019-05-07T11:56:25.787Z,21.40
2019-05-07T11:58:25.763Z,21.80
2019-05-07T12:00:25.744Z,22.20
2019-05-07T12:02:25.719Z,23.50
2019-05-07T12:04:27.891Z,22.10
2019-05-07T12:06:25.667Z,21.60
2019-05-07T12:08:37.552Z,21.50
2019-05-07T12:10:26.624Z,22.50
2019-05-07T12:12:25.597Z,21.20
2019-05-07T12:14:31.399Z,23.20
2019-05-07T12:16:26.561Z,23.10
2019-05-07T12:18:25.550Z,22.40
2019-05-07T12:20:25.522Z,21.10
2019-05-07T12:22:25.497Z,21.90
2019-05-07T12:24:25.484Z,22.30
2019-05-07T12:26:25.479Z,22.60
2019-05-07T12:28:25.421Z,23.70
2019-05-07T12:30:25.421Z,22.00
2019-05-07T12:32:25.381Z,20.60
2019-05-07T12:34:25.382Z,21.20
2019-05-07T12:36:25.338Z,20.20
2019-05-07T12:38:25.311Z,19.80
2019-05-07T12:40:25.310Z,20.80
2019-05-07T12:42:25.280Z,21.50
2019-05-07T12:44:25.254Z,22.30
2019-05-07T12:46:25.244Z,20.00
2019-05-07T12:48:25.209Z,21.40
2019-05-07T12:50:25.207Z,21.50
2019-05-07T12:52:25.179Z,20.30
2019-05-07T12:54:25.141Z,20.50
2019-05-07T12:56:25.134Z,21.00
2019-05-07T12:58:25.104Z,21.50
2019-05-07T13:00:25.090Z,22.30
2019-05-07T13:02:37.111Z,22.20
2019-05-07T13:04:26.040Z,22.90
2019-05-07T13:06:25.058Z,22.00
2019-05-07T13:08:25.015Z,22.50
2019-05-07T13:10:24.977Z,23.30
2019-05-07T13:12:24.950Z,22.40
2019-05-07T13:14:24.944Z,22.40
2019-05-07T13:16:24.913Z,22.20
2019-05-07T13:18:24.891Z,22.70
2019-05-07T13:20:24.874Z,22.00
2019-05-07T13:22:24.835Z,22.00
2019-05-07T13:24:24.831Z,22.30
2019-05-07T13:26:24.816Z,22.40
2019-05-07T13:28:24.780Z,21.70
2019-05-07T13:30:24.760Z,21.90
2019-05-07T13:32:24.748Z,20.00
2019-05-07T13:34:24.721Z,19.40
2019-05-07T13:36:24.702Z,19.60
2019-05-07T13:38:24.668Z,20.50
2019-05-07T13:40:24.652Z,19.00
2019-05-07T13:42:24.642Z,18.60
2019-05-07T13:44:24.618Z,16.80
2019-05-07T13:46:24.591Z,17.00
2019-05-07T13:48:24.577Z,14.90
2019-05-07T13:50:24.541Z,14.30
2019-05-07T13:52:24.536Z,12.20
2019-05-07T13:54:24.511Z,12.10
2019-05-07T13:56:24.475Z,12.70
2019-05-07T13:58:24.462Z,13.20
2019-05-07T14:00:24.430Z,13.20
2019-05-07T14:02:24.423Z,13.30
2019-05-07T14:04:24.390Z,13.10
2019-05-07T14:06:24.398Z,13.50
2019-05-07T14:08:24.346Z,14.00
2019-05-07T14:10:24.324Z,14.20
2019-05-07T14:12:24.319Z,14.40
2019-05-07T14:14:24.296Z,13.10
2019-05-07T14:16:24.263Z,11.70
2019-05-07T14:18:25.803Z,11.80
2019-05-07T14:20:24.220Z,11.10
2019-05-07T14:22:24.205Z,11.30
2019-05-07T14:24:24.168Z,11.50
2019-05-07T14:26:24.143Z,12.00
2019-05-07T14:28:24.372Z,11.40
2019-05-07T14:30:24.462Z,10.50
2019-05-07T14:32:25.200Z,10.50
2019-05-07T14:34:24.287Z,11.00
2019-05-07T14:36:24.179Z,11.30
2019-05-07T14:38:24.217Z,11.90
2019-05-07T14:40:25.239Z,12.30
2019-05-07T14:42:23.975Z,9.40
2019-05-07T14:44:23.982Z,8.70
2019-05-07T14:46:23.942Z,9.10
2019-05-07T14:48:23.906Z,9.20
2019-05-07T14:50:23.895Z,8.80
2019-05-07T14:52:32.295Z,8.90
2019-05-07T14:54:25.048Z,9.50
2019-05-07T14:56:24.105Z,8.90
2019-05-07T14:58:23.973Z,9.90
2019-05-07T15:00:23.786Z,9.60
2019-05-07T15:02:23.972Z,9.70
2019-05-07T15:04:23.779Z,9.70
2019-05-07T15:06:23.734Z,10.40
2019-05-07T15:08:23.732Z,10.70
2019-05-07T15:10:23.671Z,10.10
2019-05-07T15:12:23.835Z,10.80
2019-05-07T15:14:23.659Z,11.10
2019-05-07T15:16:23.605Z,10.80
2019-05-07T15:18:23.613Z,11.50
2019-05-07T15:20:23.588Z,11.40
2019-05-07T15:22:23.544Z,11.60
2019-05-07T15:24:23.538Z,12.00
2019-05-07T15:26:23.509Z,11.40
2019-05-07T15:28:23.476Z,12.30
2019-05-07T15:30:23.466Z,12.30
2019-05-07T15:32:23.434Z,13.30
2019-05-07T15:34:23.415Z,13.40
2019-05-07T15:36:23.407Z,12.70
2019-05-07T15:38:23.386Z,12.70
2019-05-07T15:40:23.358Z,12.90
2019-05-07T15:42:23.335Z,12.70
2019-05-07T15:44:23.310Z,12.90
2019-05-07T15:46:23.306Z,12.50
2019-05-07T15:48:23.276Z,13.40
2019-05-07T15:50:23.274Z,12.90
2019-05-07T15:52:23.231Z,12.30
2019-05-07T15:54:23.212Z,12.00
2019-05-07T15:56:23.190Z,12.80
2019-05-07T15:58:23.161Z,12.40
2019-05-07T16:00:23.151Z,11.30
2019-05-07T16:02:23.118Z,11.60
2019-05-07T16:04:25.770Z,11.30
2019-05-07T16:06:23.078Z,12.00
2019-05-07T16:08:23.048Z,12.30
2019-05-07T16:10:23.439Z,11.30
2019-05-07T16:12:23.014Z,11.00
2019-05-07T16:14:26.434Z,11.60
2019-05-07T16:16:23.616Z,10.90
2019-05-07T16:18:23.858Z,10.70
2019-05-07T16:20:22.997Z,10.40
2019-05-07T16:22:22.899Z,11.40
2019-05-07T16:24:22.883Z,12.40
2019-05-07T16:26:22.870Z,11.50
2019-05-07T16:28:22.834Z,11.40
2019-05-07T16:30:22.925Z,11.60
2019-05-07T16:32:24.181Z,11.50
2019-05-07T16:34:24.617Z,11.20
2019-05-07T16:36:22.755Z,11.40
2019-05-07T16:38:22.740Z,12.40
2019-05-07T16:40:23.024Z,11.60
2019-05-07T16:42:22.699Z,10.90
2019-05-07T16:44:22.666Z,10.80
2019-05-07T16:46:22.639Z,10.10
2019-05-07T16:48:23.257Z,10.20
2019-05-07T16:50:22.600Z,10.20
2019-05-07T16:52:22.582Z,11.50
2019-05-07T16:54:22.562Z,11.20
2019-05-07T16:56:22.767Z,11.10
2019-05-07T16:58:23.463Z,10.70
2019-05-07T17:00:24.405Z,10.30
2019-05-07T17:02:22.468Z,10.50
2019-05-07T17:04:22.798Z,11.10
2019-05-07T17:06:25.169Z,10.80
2019-05-07T17:08:22.444Z,9.90
2019-05-07T17:10:22.520Z,11.40
2019-05-07T17:12:22.358Z,10.50
2019-05-07T17:14:22.337Z,11.10
2019-05-07T17:16:22.849Z,11.40
2019-05-07T17:18:22.296Z,11.00
2019-05-07T17:20:22.267Z,11.60
2019-05-07T17:22:22.793Z,12.20
2019-05-07T17:24:22.382Z,11.60
2019-05-07T17:26:23.259Z,11.30
2019-05-07T17:28:22.920Z,11.30
2019-05-07T17:30:22.166Z,10.20
2019-05-07T17:32:22.969Z,10.50
2019-05-07T17:34:22.246Z,10.20
2019-05-07T17:36:22.507Z,10.60
2019-05-07T17:38:23.024Z,10.30
2019-05-07T17:40:22.579Z,10.90
2019-05-07T17:42:22.483Z,10.30
2019-05-07T17:44:23.295Z,10.60
2019-05-07T17:46:22.003Z,10.60
2019-05-07T17:48:23.231Z,10.60
2019-05-07T17:50:22.772Z,10.10
2019-05-07T17:52:22.752Z,10.50
2019-05-07T17:54:22.433Z,10.60
2019-05-07T17:56:22.406Z,10.90
2019-05-07T17:58:21.864Z,10.50
2019-05-07T18:00:22.129Z,10.90
2019-05-07T18:02:22.092Z,10.80
2019-05-07T18:04:21.810Z,10.90
2019-05-07T18:06:21.783Z,10.90
2019-05-07T18:08:21.826Z,10.10
2019-05-07T18:10:21.836Z,9.90
2019-05-07T18:12:22.529Z,10.30
2019-05-07T18:14:22.840Z,9.20
2019-05-07T18:16:22.294Z,9.60
2019-05-07T18:18:22.202Z,9.90
2019-05-07T18:20:22.207Z,9.70
2019-05-07T18:22:22.141Z,9.60
2019-05-07T18:24:22.386Z,9.40
2019-05-07T18:26:29.981Z,9.70
2019-05-07T18:28:22.545Z,8.90
2019-05-07T18:30:22.182Z,8.60
2019-05-07T18:32:22.008Z,9.20
2019-05-07T18:34:21.471Z,8.50
2019-05-07T18:36:22.725Z,8.70
2019-05-07T18:38:22.358Z,8.90
2019-05-07T18:40:21.420Z,8.30
2019-05-07T18:42:22.193Z,8.50
2019-05-07T18:44:22.288Z,9.00
2019-05-07T18:46:22.161Z,9.20
2019-05-07T18:48:22.376Z,9.50
2019-05-07T18:50:22.506Z,9.10
2019-05-07T18:52:23.028Z,9.30
2019-05-07T18:54:30.580Z,8.80
2019-05-07T18:56:22.276Z,9.00
2019-05-07T18:58:22.454Z,9.00
2019-05-07T19:00:22.117Z,8.70
2019-05-07T19:02:22.571Z,8.60
2019-05-07T19:04:21.966Z,8.60
2019-05-07T19:06:22.300Z,8.00
2019-05-07T19:08:22.952Z,8.40
2019-05-07T19:10:22.002Z,8.10
2019-05-07T19:12:22.316Z,8.20
2019-05-07T19:14:22.729Z,8.40
2019-05-07T19:16:23.021Z,8.60
2019-05-07T19:18:22.814Z,8.20
2019-05-07T19:20:21.791Z,8.00
2019-05-07T19:22:22.233Z,8.00
2019-05-07T19:24:22.994Z,8.60
2019-05-07T19:26:20.894Z,8.40
2019-05-07T19:28:22.426Z,8.00
2019-05-07T19:30:21.829Z,7.90
2019-05-07T19:32:22.794Z,7.60
2019-05-07T19:34:21.784Z,7.60
2019-05-07T19:36:22.333Z,7.50
2019-05-07T19:38:20.848Z,8.00
2019-05-07T19:40:20.757Z,8.00
2019-05-07T19:42:20.722Z,8.00
2019-05-07T19:44:20.732Z,7.60
2019-05-07T19:46:22.672Z,7.20
2019-05-07T19:48:22.946Z,8.00
2019-05-07T19:50:20.639Z,7.60
2019-05-07T19:52:22.931Z,7.90
2019-05-07T19:54:22.627Z,8.20
2019-05-07T19:56:21.955Z,7.80
2019-05-07T19:58:22.830Z,7.60
2019-05-07T20:00:22.920Z,7.90
2019-05-07T20:02:22.710Z,7.40
2019-05-07T20:04:20.525Z,7.60
2019-05-07T20:06:20.467Z,8.00
2019-05-07T20:08:20.457Z,7.90
2019-05-07T20:10:20.450Z,7.80
2019-05-07T20:12:20.413Z,7.80
2019-05-07T20:14:22.331Z,7.90
2019-05-07T20:16:20.368Z,8.40
2019-05-07T20:18:21.999Z,8.30
2019-05-07T20:20:22.156Z,8.40
2019-05-07T20:22:22.167Z,7.70
2019-05-07T20:24:21.961Z,8.00
2019-05-07T20:26:20.275Z,7.50
2019-05-07T20:28:21.814Z,8.10
2019-05-07T20:30:20.212Z,7.80
2019-05-07T20:32:22.055Z,7.90
2019-05-07T20:34:22.149Z,7.70
2019-05-07T20:36:20.172Z,7.80
2019-05-07T20:38:20.137Z,7.70
2019-05-07T20:40:20.118Z,7.40
2019-05-07T20:42:20.107Z,7.50
2019-05-07T20:44:20.076Z,7.60
2019-05-07T20:46:20.060Z,8.10
2019-05-07T20:48:20.049Z,7.80
2019-05-07T20:50:22.162Z,7.50
2019-05-07T20:52:20.001Z,8.30
2019-05-07T20:54:19.980Z,7.60
2019-05-07T20:56:19.949Z,7.60
2019-05-07T20:58:22.036Z,8.20
2019-05-07T21:00:19.902Z,8.20
2019-05-07T21:02:19.888Z,8.40
2019-05-07T21:04:22.103Z,7.70
2019-05-07T21:06:19.848Z,7.90
2019-05-07T21:08:19.817Z,8.10
2019-05-07T21:10:22.034Z,8.00
2019-05-07T21:12:22.329Z,7.60
2019-05-07T21:14:19.750Z,8.30
2019-05-07T21:16:21.969Z,8.20
2019-05-07T21:18:19.723Z,8.00
2019-05-07T21:20:19.713Z,8.10
2019-05-07T21:22:19.686Z,7.70
2019-05-07T21:24:19.651Z,8.40
2019-05-07T21:26:19.621Z,7.90
2019-05-07T21:28:19.614Z,7.60
2019-05-07T21:30:19.585Z,7.80
2019-05-07T21:32:19.575Z,7.80
2019-05-07T21:34:19.541Z,7.40
2019-05-07T21:36:19.519Z,7.90
2019-05-07T21:38:19.511Z,8.00
2019-05-07T21:40:19.473Z,7.90
2019-05-07T21:42:19.454Z,7.90
2019-05-07T21:44:19.461Z,7.60
2019-05-07T21:46:19.424Z,7.50
2019-05-07T21:48:19.389Z,7.80
2019-05-07T21:50:21.783Z,7.70
2019-05-07T21:52:19.354Z,7.60
2019-05-07T21:54:19.349Z,7.80
2019-05-07T21:56:19.323Z,7.80
2019-05-07T21:58:19.284Z,7.30
2019-05-07T22:00:19.307Z,7.10
2019-05-07T22:02:19.251Z,7.30
2019-05-07T22:04:19.243Z,7.30
2019-05-07T22:06:19.209Z,7.40
2019-05-07T22:08:19.191Z,7.40
2019-05-07T22:10:19.168Z,7.70
2019-05-07T22:12:19.143Z,6.70
2019-05-07T22:14:19.110Z,7.30
2019-05-07T22:16:19.110Z,6.80
2019-05-07T22:18:19.083Z,7.00
2019-05-07T22:20:19.057Z,6.60
2019-05-07T22:22:19.038Z,7.30
2019-05-07T22:24:19.003Z,7.50
2019-05-07T22:26:23.288Z,7.10
2019-05-07T22:28:21.971Z,6.60
2019-05-07T22:30:18.959Z,7.00
2019-05-07T22:32:18.917Z,6.60
2019-05-07T22:34:18.897Z,7.30
2019-05-07T22:36:18.893Z,6.90
2019-05-07T22:38:18.851Z,6.50
2019-05-07T22:40:18.860Z,6.60
2019-05-07T22:42:18.825Z,6.90
2019-05-07T22:44:18.794Z,6.90
2019-05-07T22:46:18.785Z,6.30
2019-05-07T22:48:18.759Z,6.50
2019-05-07T22:50:18.729Z,6.80
2019-05-07T22:52:18.727Z,6.50
2019-05-07T22:54:18.690Z,6.90
2019-05-07T22:56:33.464Z,6.80
2019-05-07T22:58:21.839Z,6.20
2019-05-07T23:00:18.622Z,6.00
2019-05-07T23:02:18.618Z,6.40
2019-05-07T23:04:18.579Z,6.30
2019-05-07T23:06:18.584Z,5.90
2019-05-07T23:08:18.546Z,6.30
2019-05-07T23:10:18.527Z,6.40
2019-05-07T23:12:18.512Z,6.40
2019-05-07T23:14:18.478Z,6.20
2019-05-07T23:16:18.451Z,6.50
2019-05-07T23:18:18.440Z,6.40
2019-05-07T23:20:18.417Z,6.10
2019-05-07T23:22:18.386Z,6.40
2019-05-07T23:24:18.363Z,6.10
2019-05-07T23:26:18.364Z,6.20
2019-05-07T23:28:18.326Z,6.10
2019-05-07T23:30:18.321Z,6.30
2019-05-07T23:32:18.294Z,5.90
2019-05-07T23:34:18.263Z,5.80
2019-05-07T23:36:18.252Z,6.20
2019-05-07T23:38:18.218Z,6.10
2019-05-07T23:40:18.197Z,5.50
2019-05-07T23:42:18.194Z,6.00
2019-05-07T23:44:18.163Z,5.60
2019-05-07T23:46:18.138Z,5.80
2019-05-07T23:48:18.126Z,5.70
2019-05-07T23:50:18.125Z,5.90
2019-05-07T23:52:18.071Z,5.80
2019-05-07T23:54:18.073Z,5.90
2019-05-07T23:56:18.045Z,6.10
2019-05-07T23:58:18.034Z,5.80
